sensor_id;sensor_type;location;lat;lon;timestamp;P1;durP1;ratioP1;P2;durP2;ratioP2
11877;SDS011;5998;42.676;23.268;2023-09-19T00:01:08;10.30;;;6.30;;
11877;SDS011;5998;42.676;23.268;2023-09-19T00:03:37;7.30;;;6.60;;
11877;SDS011;5998;42.676;23.268;2023-09-19T00:06:04;6.80;;;6.20;;
11877;SDS011;5998;42.676;23.268;2023-09-19T00:08:32;7.33;;;5.90;;
11877;SDS011;5998;42.676;23.268;2023-09-19T00:10:59;8.27;;;6.77;;
11877;SDS011;5998;42.676;23.268;2023-09-19T00:13:30;8.53;;;6.43;;
11877;SDS011;5998;42.676;23.268;2023-09-19T00:15:57;7.53;;;6.17;;
11877;SDS011;5998;42.676;23.268;2023-09-19T00:18:24;7.33;;;6.30;;
11877;SDS011;5998;42.676;23.268;2023-09-19T00:20:58;6.97;;;6.20;;
11877;SDS011;5998;42.676;23.268;2023-09-19T00:23:24;6.70;;;6.10;;
11877;SDS011;5998;42.676;23.268;2023-09-19T00:25:51;7.10;;;6.43;;
11877;SDS011;5998;42.676;23.268;2023-09-19T00:28:17;6.90;;;6.20;;
11877;SDS011;5998;42.676;23.268;2023-09-19T00:30:44;6.57;;;5.97;;
11877;SDS011;5998;42.676;23.268;2023-09-19T00:33:15;6.30;;;5.70;;
11877;SDS011;5998;42.676;23.268;2023-09-19T00:35:46;6.33;;;5.73;;
11877;SDS011;5998;42.676;23.268;2023-09-19T00:38:14;7.27;;;6.13;;
11877;SDS011;5998;42.676;23.268;2023-09-19T00:40:43;7.00;;;6.30;;
11877;SDS011;5998;42.676;23.268;2023-09-19T00:43:09;8.13;;;6.93;;
11877;SDS011;5998;42.676;23.268;2023-09-19T00:45:36;8.53;;;6.60;;
11877;SDS011;5998;42.676;23.268;2023-09-19T00:48:04;7.07;;;6.37;;
11877;SDS011;5998;42.676;23.268;2023-09-19T00:50:37;8.90;;;6.57;;
11877;SDS011;5998;42.676;23.268;2023-09-19T00:53:07;6.97;;;6.37;;
11877;SDS011;5998;42.676;23.268;2023-09-19T00:55:36;6.77;;;6.17;;
11877;SDS011;5998;42.676;23.268;2023-09-19T00:58:03;9.23;;;6.03;;
11877;SDS011;5998;42.676;23.268;2023-09-19T01:00:31;7.43;;;6.73;;
11877;SDS011;5998;42.676;23.268;2023-09-19T01:02:59;7.93;;;6.50;;
11877;SDS011;5998;42.676;23.268;2023-09-19T01:05:26;8.10;;;6.40;;
11877;SDS011;5998;42.676;23.268;2023-09-19T01:07:52;9.10;;;6.90;;
11877;SDS011;5998;42.676;23.268;2023-09-19T01:10:19;7.33;;;6.47;;
11877;SDS011;5998;42.676;23.268;2023-09-19T01:12:51;7.43;;;6.40;;
11877;SDS011;5998;42.676;23.268;2023-09-19T01:15:21;7.77;;;6.57;;
11877;SDS011;5998;42.676;23.268;2023-09-19T01:17:49;7.33;;;6.63;;
11877;SDS011;5998;42.676;23.268;2023-09-19T01:20:23;7.40;;;6.50;;
11877;SDS011;5998;42.676;23.268;2023-09-19T01:22:56;7.63;;;6.47;;
11877;SDS011;5998;42.676;23.268;2023-09-19T01:28:20;7.80;;;6.93;;
11877;SDS011;5998;42.676;23.268;2023-09-19T01:30:57;7.03;;;6.30;;
11877;SDS011;5998;42.676;23.268;2023-09-19T01:33:25;8.10;;;6.93;;
11877;SDS011;5998;42.676;23.268;2023-09-19T01:35:52;9.83;;;6.83;;
11877;SDS011;5998;42.676;23.268;2023-09-19T01:38:22;7.83;;;7.03;;
11877;SDS011;5998;42.676;23.268;2023-09-19T01:40:51;8.00;;;6.50;;
11877;SDS011;5998;42.676;23.268;2023-09-19T01:43:24;7.83;;;7.00;;
11877;SDS011;5998;42.676;23.268;2023-09-19T01:45:56;7.60;;;6.77;;
11877;SDS011;5998;42.676;23.268;2023-09-19T01:48:28;7.50;;;6.73;;
11877;SDS011;5998;42.676;23.268;2023-09-19T01:50:59;7.80;;;6.50;;
11877;SDS011;5998;42.676;23.268;2023-09-19T01:53:26;7.63;;;6.93;;
11877;SDS011;5998;42.676;23.268;2023-09-19T01:55:55;9.07;;;6.73;;
11877;SDS011;5998;42.676;23.268;2023-09-19T01:58:25;8.97;;;6.63;;
11877;SDS011;5998;42.676;23.268;2023-09-19T02:00:55;7.37;;;6.60;;
11877;SDS011;5998;42.676;23.268;2023-09-19T02:03:22;9.47;;;6.53;;
11877;SDS011;5998;42.676;23.268;2023-09-19T02:05:50;7.30;;;6.47;;
11877;SDS011;5998;42.676;23.268;2023-09-19T02:08:17;7.63;;;6.60;;
11877;SDS011;5998;42.676;23.268;2023-09-19T02:10:44;7.17;;;6.47;;
11877;SDS011;5998;42.676;23.268;2023-09-19T02:13:14;7.47;;;6.83;;
11877;SDS011;5998;42.676;23.268;2023-09-19T02:15:40;9.77;;;6.90;;
11877;SDS011;5998;42.676;23.268;2023-09-19T02:18:08;7.77;;;6.80;;
11877;SDS011;5998;42.676;23.268;2023-09-19T02:20:34;7.53;;;6.73;;
11877;SDS011;5998;42.676;23.268;2023-09-19T02:23:02;7.83;;;7.00;;
11877;SDS011;5998;42.676;23.268;2023-09-19T02:25:28;8.53;;;7.63;;
11877;SDS011;5998;42.676;23.268;2023-09-19T02:27:56;9.73;;;7.03;;
11877;SDS011;5998;42.676;23.268;2023-09-19T02:30:23;7.97;;;7.17;;
11877;SDS011;5998;42.676;23.268;2023-09-19T02:32:50;8.43;;;7.37;;
11877;SDS011;5998;42.676;23.268;2023-09-19T02:35:18;10.03;;;7.00;;
11877;SDS011;5998;42.676;23.268;2023-09-19T02:37:45;9.53;;;7.10;;
11877;SDS011;5998;42.676;23.268;2023-09-19T02:40:12;9.17;;;7.60;;
11877;SDS011;5998;42.676;23.268;2023-09-19T02:42:44;9.23;;;7.30;;
11877;SDS011;5998;42.676;23.268;2023-09-19T02:45:14;7.23;;;6.63;;
11877;SDS011;5998;42.676;23.268;2023-09-19T02:47:40;10.77;;;7.50;;
11877;SDS011;5998;42.676;23.268;2023-09-19T02:50:07;8.77;;;7.20;;
11877;SDS011;5998;42.676;23.268;2023-09-19T02:52:37;8.70;;;7.77;;
11877;SDS011;5998;42.676;23.268;2023-09-19T02:55:03;8.30;;;7.50;;
11877;SDS011;5998;42.676;23.268;2023-09-19T02:57:31;7.47;;;6.77;;
11877;SDS011;5998;42.676;23.268;2023-09-19T02:59:59;8.10;;;6.67;;
11877;SDS011;5998;42.676;23.268;2023-09-19T03:02:26;9.37;;;7.47;;
11877;SDS011;5998;42.676;23.268;2023-09-19T03:04:52;8.33;;;7.53;;
11877;SDS011;5998;42.676;23.268;2023-09-19T03:07:19;9.20;;;6.93;;
11877;SDS011;5998;42.676;23.268;2023-09-19T03:09:47;10.90;;;7.47;;
11877;SDS011;5998;42.676;23.268;2023-09-19T03:12:14;9.90;;;8.13;;
11877;SDS011;5998;42.676;23.268;2023-09-19T03:14:41;9.77;;;7.67;;
11877;SDS011;5998;42.676;23.268;2023-09-19T03:17:07;13.67;;;8.40;;
11877;SDS011;5998;42.676;23.268;2023-09-19T03:19:35;9.33;;;7.70;;
11877;SDS011;5998;42.676;23.268;2023-09-19T03:22:02;11.23;;;7.77;;
11877;SDS011;5998;42.676;23.268;2023-09-19T03:24:29;10.37;;;8.00;;
11877;SDS011;5998;42.676;23.268;2023-09-19T03:26:58;9.57;;;7.63;;
11877;SDS011;5998;42.676;23.268;2023-09-19T03:29:24;10.97;;;7.40;;
11877;SDS011;5998;42.676;23.268;2023-09-19T03:31:52;8.00;;;7.20;;
11877;SDS011;5998;42.676;23.268;2023-09-19T03:34:19;10.03;;;6.97;;
11877;SDS011;5998;42.676;23.268;2023-09-19T03:36:46;8.70;;;7.30;;
11877;SDS011;5998;42.676;23.268;2023-09-19T03:39:12;13.27;;;7.57;;
11877;SDS011;5998;42.676;23.268;2023-09-19T03:41:39;10.23;;;7.80;;
11877;SDS011;5998;42.676;23.268;2023-09-19T03:44:08;12.07;;;8.00;;
11877;SDS011;5998;42.676;23.268;2023-09-19T03:46:34;11.03;;;7.60;;
11877;SDS011;5998;42.676;23.268;2023-09-19T03:49:01;10.50;;;7.43;;
11877;SDS011;5998;42.676;23.268;2023-09-19T03:51:28;8.10;;;7.10;;
11877;SDS011;5998;42.676;23.268;2023-09-19T03:53:54;8.47;;;7.20;;
11877;SDS011;5998;42.676;23.268;2023-09-19T03:56:21;11.07;;;7.30;;
11877;SDS011;5998;42.676;23.268;2023-09-19T03:58:47;11.70;;;7.63;;
11877;SDS011;5998;42.676;23.268;2023-09-19T04:01:15;11.30;;;7.80;;
11877;SDS011;5998;42.676;23.268;2023-09-19T04:03:43;10.37;;;7.53;;
11877;SDS011;5998;42.676;23.268;2023-09-19T04:06:13;10.83;;;7.20;;
11877;SDS011;5998;42.676;23.268;2023-09-19T04:08:39;11.53;;;7.80;;
11877;SDS011;5998;42.676;23.268;2023-09-19T04:11:06;10.47;;;7.80;;
11877;SDS011;5998;42.676;23.268;2023-09-19T04:13:32;14.27;;;7.80;;
11877;SDS011;5998;42.676;23.268;2023-09-19T04:15:59;14.30;;;10.43;;
11877;SDS011;5998;42.676;23.268;2023-09-19T04:18:27;12.80;;;9.20;;
11877;SDS011;5998;42.676;23.268;2023-09-19T04:20:56;13.13;;;7.93;;
11877;SDS011;5998;42.676;23.268;2023-09-19T04:23:22;14.47;;;8.23;;
11877;SDS011;5998;42.676;23.268;2023-09-19T04:25:49;12.53;;;7.90;;
11877;SDS011;5998;42.676;23.268;2023-09-19T04:28:15;11.03;;;7.40;;
11877;SDS011;5998;42.676;23.268;2023-09-19T04:30:42;13.17;;;8.50;;
11877;SDS011;5998;42.676;23.268;2023-09-19T04:33:09;18.10;;;13.33;;
11877;SDS011;5998;42.676;23.268;2023-09-19T04:35:36;13.93;;;8.60;;
11877;SDS011;5998;42.676;23.268;2023-09-19T04:38:04;9.93;;;7.33;;
11877;SDS011;5998;42.676;23.268;2023-09-19T04:40:32;8.37;;;7.50;;
11877;SDS011;5998;42.676;23.268;2023-09-19T04:42:59;14.27;;;9.00;;
11877;SDS011;5998;42.676;23.268;2023-09-19T04:45:25;16.30;;;8.00;;
11877;SDS011;5998;42.676;23.268;2023-09-19T04:47:52;12.67;;;8.00;;
11877;SDS011;5998;42.676;23.268;2023-09-19T04:50:19;9.47;;;7.83;;
11877;SDS011;5998;42.676;23.268;2023-09-19T04:52:48;9.10;;;7.50;;
11877;SDS011;5998;42.676;23.268;2023-09-19T04:55:15;10.03;;;7.03;;
11877;SDS011;5998;42.676;23.268;2023-09-19T04:57:42;9.87;;;7.53;;
11877;SDS011;5998;42.676;23.268;2023-09-19T05:00:10;9.73;;;8.20;;
11877;SDS011;5998;42.676;23.268;2023-09-19T05:02:38;8.53;;;7.30;;
11877;SDS011;5998;42.676;23.268;2023-09-19T05:05:04;11.10;;;9.47;;
11877;SDS011;5998;42.676;23.268;2023-09-19T05:07:31;7.83;;;7.07;;
11877;SDS011;5998;42.676;23.268;2023-09-19T05:10:00;12.00;;;7.67;;
11877;SDS011;5998;42.676;23.268;2023-09-19T05:12:28;13.80;;;10.67;;
11877;SDS011;5998;42.676;23.268;2023-09-19T05:14:55;12.20;;;8.03;;
11877;SDS011;5998;42.676;23.268;2023-09-19T05:17:21;9.77;;;8.23;;
11877;SDS011;5998;42.676;23.268;2023-09-19T05:19:47;10.87;;;8.23;;
11877;SDS011;5998;42.676;23.268;2023-09-19T05:22:14;11.50;;;7.87;;
11877;SDS011;5998;42.676;23.268;2023-09-19T05:24:40;9.80;;;8.00;;
11877;SDS011;5998;42.676;23.268;2023-09-19T05:27:08;15.37;;;8.83;;
11877;SDS011;5998;42.676;23.268;2023-09-19T05:29:35;11.17;;;8.17;;
11877;SDS011;5998;42.676;23.268;2023-09-19T05:32:03;18.03;;;8.80;;
11877;SDS011;5998;42.676;23.268;2023-09-19T05:34:30;9.70;;;8.57;;
11877;SDS011;5998;42.676;23.268;2023-09-19T05:36:57;12.80;;;8.10;;
11877;SDS011;5998;42.676;23.268;2023-09-19T05:39:23;12.77;;;8.50;;
11877;SDS011;5998;42.676;23.268;2023-09-19T05:41:50;14.57;;;8.27;;
11877;SDS011;5998;42.676;23.268;2023-09-19T05:44:17;11.63;;;7.93;;
11877;SDS011;5998;42.676;23.268;2023-09-19T05:46:44;13.87;;;8.00;;
11877;SDS011;5998;42.676;23.268;2023-09-19T05:49:13;11.40;;;8.20;;
11877;SDS011;5998;42.676;23.268;2023-09-19T05:51:40;14.30;;;8.63;;
11877;SDS011;5998;42.676;23.268;2023-09-19T05:54:06;15.53;;;8.83;;
11877;SDS011;5998;42.676;23.268;2023-09-19T05:56:33;13.10;;;8.77;;
11877;SDS011;5998;42.676;23.268;2023-09-19T05:58:59;11.13;;;8.97;;
11877;SDS011;5998;42.676;23.268;2023-09-19T06:01:27;14.93;;;8.10;;
11877;SDS011;5998;42.676;23.268;2023-09-19T06:03:53;12.63;;;8.17;;
11877;SDS011;5998;42.676;23.268;2023-09-19T06:06:20;12.27;;;8.30;;
11877;SDS011;5998;42.676;23.268;2023-09-19T06:08:49;9.57;;;8.50;;
11877;SDS011;5998;42.676;23.268;2023-09-19T06:11:15;8.77;;;7.83;;
11877;SDS011;5998;42.676;23.268;2023-09-19T06:13:42;9.60;;;7.70;;
11877;SDS011;5998;42.676;23.268;2023-09-19T06:16:08;10.83;;;7.70;;
11877;SDS011;5998;42.676;23.268;2023-09-19T06:18:36;11.93;;;7.60;;
11877;SDS011;5998;42.676;23.268;2023-09-19T06:21:02;9.03;;;7.13;;
11877;SDS011;5998;42.676;23.268;2023-09-19T06:23:32;16.50;;;8.30;;
11877;SDS011;5998;42.676;23.268;2023-09-19T06:25:59;9.33;;;7.60;;
11877;SDS011;5998;42.676;23.268;2023-09-19T06:28:25;14.17;;;6.90;;
11877;SDS011;5998;42.676;23.268;2023-09-19T06:30:53;17.87;;;7.70;;
11877;SDS011;5998;42.676;23.268;2023-09-19T06:33:20;12.70;;;7.60;;
11877;SDS011;5998;42.676;23.268;2023-09-19T06:35:48;7.97;;;6.70;;
11877;SDS011;5998;42.676;23.268;2023-09-19T06:38:14;9.87;;;7.10;;
11877;SDS011;5998;42.676;23.268;2023-09-19T06:40:41;9.60;;;7.73;;
11877;SDS011;5998;42.676;23.268;2023-09-19T06:43:09;11.80;;;7.20;;
11877;SDS011;5998;42.676;23.268;2023-09-19T06:45:36;13.23;;;8.43;;
11877;SDS011;5998;42.676;23.268;2023-09-19T06:48:02;10.37;;;7.97;;
11877;SDS011;5998;42.676;23.268;2023-09-19T06:50:30;10.17;;;7.37;;
11877;SDS011;5998;42.676;23.268;2023-09-19T06:52:59;9.13;;;6.10;;
11877;SDS011;5998;42.676;23.268;2023-09-19T06:55:27;8.03;;;6.80;;
11877;SDS011;5998;42.676;23.268;2023-09-19T06:57:56;8.43;;;7.43;;
11877;SDS011;5998;42.676;23.268;2023-09-19T07:00:23;8.53;;;6.47;;
11877;SDS011;5998;42.676;23.268;2023-09-19T07:02:56;13.13;;;6.90;;
11877;SDS011;5998;42.676;23.268;2023-09-19T07:05:24;13.43;;;7.20;;
11877;SDS011;5998;42.676;23.268;2023-09-19T07:07:50;9.07;;;6.97;;
11877;SDS011;5998;42.676;23.268;2023-09-19T07:10:18;7.77;;;6.33;;
11877;SDS011;5998;42.676;23.268;2023-09-19T07:12:45;9.03;;;7.20;;
11877;SDS011;5998;42.676;23.268;2023-09-19T07:15:12;8.17;;;6.43;;
11877;SDS011;5998;42.676;23.268;2023-09-19T07:17:38;9.23;;;6.63;;
11877;SDS011;5998;42.676;23.268;2023-09-19T07:20:05;10.23;;;6.87;;
11877;SDS011;5998;42.676;23.268;2023-09-19T07:22:33;8.50;;;6.07;;
11877;SDS011;5998;42.676;23.268;2023-09-19T07:24:59;10.40;;;6.47;;
11877;SDS011;5998;42.676;23.268;2023-09-19T07:27:27;10.67;;;6.43;;
11877;SDS011;5998;42.676;23.268;2023-09-19T07:29:54;8.43;;;5.60;;
11877;SDS011;5998;42.676;23.268;2023-09-19T07:32:20;7.87;;;5.87;;
11877;SDS011;5998;42.676;23.268;2023-09-19T07:34:46;9.87;;;6.27;;
11877;SDS011;5998;42.676;23.268;2023-09-19T07:37:13;10.77;;;6.87;;
11877;SDS011;5998;42.676;23.268;2023-09-19T07:39:40;7.83;;;6.27;;
11877;SDS011;5998;42.676;23.268;2023-09-19T07:42:07;7.13;;;6.43;;
11877;SDS011;5998;42.676;23.268;2023-09-19T07:44:36;9.77;;;6.57;;
11877;SDS011;5998;42.676;23.268;2023-09-19T07:47:03;9.07;;;6.00;;
11877;SDS011;5998;42.676;23.268;2023-09-19T07:49:29;11.20;;;6.00;;
11877;SDS011;5998;42.676;23.268;2023-09-19T07:51:55;10.40;;;6.13;;
11877;SDS011;5998;42.676;23.268;2023-09-19T07:54:22;9.80;;;6.37;;
11877;SDS011;5998;42.676;23.268;2023-09-19T07:56:48;8.70;;;6.40;;
11877;SDS011;5998;42.676;23.268;2023-09-19T07:59:15;8.53;;;6.10;;
11877;SDS011;5998;42.676;23.268;2023-09-19T08:01:43;8.13;;;6.53;;
11877;SDS011;5998;42.676;23.268;2023-09-19T08:04:10;10.83;;;7.20;;
11877;SDS011;5998;42.676;23.268;2023-09-19T08:06:36;10.17;;;6.63;;
11877;SDS011;5998;42.676;23.268;2023-09-19T08:09:04;10.50;;;7.20;;
11877;SDS011;5998;42.676;23.268;2023-09-19T08:11:32;11.83;;;6.60;;
11877;SDS011;5998;42.676;23.268;2023-09-19T08:13:59;7.73;;;6.40;;
11877;SDS011;5998;42.676;23.268;2023-09-19T08:16:25;12.63;;;6.73;;
11877;SDS011;5998;42.676;23.268;2023-09-19T08:18:53;10.13;;;6.90;;
11877;SDS011;5998;42.676;23.268;2023-09-19T08:21:20;13.57;;;7.93;;
11877;SDS011;5998;42.676;23.268;2023-09-19T08:23:46;6.37;;;5.47;;
11877;SDS011;5998;42.676;23.268;2023-09-19T08:26:13;13.63;;;6.90;;
11877;SDS011;5998;42.676;23.268;2023-09-19T08:28:39;11.27;;;6.37;;
11877;SDS011;5998;42.676;23.268;2023-09-19T08:31:07;9.80;;;5.83;;
11877;SDS011;5998;42.676;23.268;2023-09-19T08:33:34;8.70;;;5.87;;
11877;SDS011;5998;42.676;23.268;2023-09-19T08:36:02;12.57;;;5.97;;
11877;SDS011;5998;42.676;23.268;2023-09-19T08:38:30;6.30;;;5.03;;
11877;SDS011;5998;42.676;23.268;2023-09-19T08:40:58;10.07;;;6.63;;
11877;SDS011;5998;42.676;23.268;2023-09-19T08:43:25;12.07;;;6.60;;
11877;SDS011;5998;42.676;23.268;2023-09-19T08:45:53;8.07;;;5.83;;
11877;SDS011;5998;42.676;23.268;2023-09-19T08:48:23;9.13;;;5.40;;
11877;SDS011;5998;42.676;23.268;2023-09-19T08:50:51;12.83;;;6.23;;
11877;SDS011;5998;42.676;23.268;2023-09-19T08:53:25;12.50;;;6.33;;
11877;SDS011;5998;42.676;23.268;2023-09-19T08:55:54;11.10;;;7.17;;
11877;SDS011;5998;42.676;23.268;2023-09-19T08:58:23;9.13;;;6.03;;
11877;SDS011;5998;42.676;23.268;2023-09-19T09:00:53;10.30;;;6.57;;
11877;SDS011;5998;42.676;23.268;2023-09-19T09:03:20;8.27;;;5.87;;
11877;SDS011;5998;42.676;23.268;2023-09-19T09:05:47;7.13;;;5.20;;
11877;SDS011;5998;42.676;23.268;2023-09-19T09:08:15;9.70;;;5.80;;
11877;SDS011;5998;42.676;23.268;2023-09-19T09:10:44;11.10;;;6.37;;
11877;SDS011;5998;42.676;23.268;2023-09-19T09:13:11;6.33;;;5.40;;
11877;SDS011;5998;42.676;23.268;2023-09-19T09:15:39;9.57;;;6.20;;
11877;SDS011;5998;42.676;23.268;2023-09-19T09:18:07;9.80;;;6.50;;
11877;SDS011;5998;42.676;23.268;2023-09-19T09:20:34;11.03;;;6.80;;
11877;SDS011;5998;42.676;23.268;2023-09-19T09:23:01;9.87;;;6.03;;
11877;SDS011;5998;42.676;23.268;2023-09-19T09:28:12;6.67;;;5.67;;
11877;SDS011;5998;42.676;23.268;2023-09-19T09:30:46;8.33;;;6.40;;
11877;SDS011;5998;42.676;23.268;2023-09-19T09:33:13;10.00;;;5.90;;
11877;SDS011;5998;42.676;23.268;2023-09-19T09:35:47;9.87;;;6.30;;
11877;SDS011;5998;42.676;23.268;2023-09-19T09:38:17;11.70;;;5.97;;
11877;SDS011;5998;42.676;23.268;2023-09-19T09:40:47;14.80;;;6.80;;
11877;SDS011;5998;42.676;23.268;2023-09-19T09:43:28;7.50;;;5.90;;
11877;SDS011;5998;42.676;23.268;2023-09-19T09:46:05;7.70;;;5.80;;
11877;SDS011;5998;42.676;23.268;2023-09-19T09:48:36;7.10;;;5.93;;
11877;SDS011;5998;42.676;23.268;2023-09-19T09:51:04;7.60;;;5.93;;
11877;SDS011;5998;42.676;23.268;2023-09-19T09:53:33;7.53;;;5.63;;
11877;SDS011;5998;42.676;23.268;2023-09-19T09:56:00;8.00;;;6.37;;
11877;SDS011;5998;42.676;23.268;2023-09-19T09:58:29;6.97;;;6.13;;
11877;SDS011;5998;42.676;23.268;2023-09-19T10:00:57;7.13;;;6.43;;
11877;SDS011;5998;42.676;23.268;2023-09-19T10:03:32;9.97;;;6.47;;
11877;SDS011;5998;42.676;23.268;2023-09-19T10:06:03;8.00;;;6.57;;
11877;SDS011;5998;42.676;23.268;2023-09-19T10:08:57;8.47;;;6.13;;
11877;SDS011;5998;42.676;23.268;2023-09-19T10:11:26;6.97;;;6.20;;
11877;SDS011;5998;42.676;23.268;2023-09-19T10:13:56;10.03;;;6.60;;
11877;SDS011;5998;42.676;23.268;2023-09-19T10:16:23;8.70;;;6.47;;
11877;SDS011;5998;42.676;23.268;2023-09-19T10:18:51;8.70;;;5.77;;
11877;SDS011;5998;42.676;23.268;2023-09-19T10:21:20;8.70;;;6.40;;
11877;SDS011;5998;42.676;23.268;2023-09-19T10:23:47;10.30;;;5.67;;
11877;SDS011;5998;42.676;23.268;2023-09-19T10:26:17;9.10;;;5.90;;
11877;SDS011;5998;42.676;23.268;2023-09-19T10:28:43;12.40;;;5.63;;
11877;SDS011;5998;42.676;23.268;2023-09-19T10:31:14;9.27;;;6.63;;
11877;SDS011;5998;42.676;23.268;2023-09-19T10:33:44;11.17;;;6.40;;
11877;SDS011;5998;42.676;23.268;2023-09-19T10:36:11;8.87;;;6.70;;
11877;SDS011;5998;42.676;23.268;2023-09-19T10:38:39;16.57;;;6.57;;
11877;SDS011;5998;42.676;23.268;2023-09-19T10:41:09;7.60;;;6.83;;
11877;SDS011;5998;42.676;23.268;2023-09-19T10:43:36;11.00;;;6.13;;
11877;SDS011;5998;42.676;23.268;2023-09-19T10:46:06;10.77;;;6.13;;
11877;SDS011;5998;42.676;23.268;2023-09-19T10:48:36;9.37;;;5.80;;
11877;SDS011;5998;42.676;23.268;2023-09-19T10:51:05;10.23;;;5.53;;
11877;SDS011;5998;42.676;23.268;2023-09-19T10:53:40;9.53;;;6.40;;
11877;SDS011;5998;42.676;23.268;2023-09-19T10:56:09;7.47;;;5.63;;
11877;SDS011;5998;42.676;23.268;2023-09-19T10:58:42;14.17;;;5.83;;
11877;SDS011;5998;42.676;23.268;2023-09-19T11:01:09;9.60;;;5.53;;
11877;SDS011;5998;42.676;23.268;2023-09-19T11:03:38;8.70;;;5.93;;
11877;SDS011;5998;42.676;23.268;2023-09-19T11:06:09;7.30;;;6.27;;
11877;SDS011;5998;42.676;23.268;2023-09-19T11:08:51;12.00;;;5.87;;
11877;SDS011;5998;42.676;23.268;2023-09-19T11:22:20;7.77;;;5.73;;
11877;SDS011;5998;42.676;23.268;2023-09-19T11:24:47;7.80;;;5.63;;
11877;SDS011;5998;42.676;23.268;2023-09-19T11:27:16;8.60;;;5.53;;
11877;SDS011;5998;42.676;23.268;2023-09-19T11:29:44;7.27;;;5.87;;
11877;SDS011;5998;42.676;23.268;2023-09-19T11:32:11;6.63;;;5.30;;
11877;SDS011;5998;42.676;23.268;2023-09-19T11:34:43;14.00;;;6.27;;
11877;SDS011;5998;42.676;23.268;2023-09-19T11:40:07;8.23;;;5.40;;
11877;SDS011;5998;42.676;23.268;2023-09-19T11:42:41;15.10;;;5.93;;
11877;SDS011;5998;42.676;23.268;2023-09-19T11:45:08;8.70;;;5.83;;
11877;SDS011;5998;42.676;23.268;2023-09-19T11:47:54;7.40;;;5.77;;
11877;SDS011;5998;42.676;23.268;2023-09-19T11:50:21;7.80;;;5.57;;
11877;SDS011;5998;42.676;23.268;2023-09-19T11:52:50;10.10;;;5.80;;
11877;SDS011;5998;42.676;23.268;2023-09-19T11:55:18;14.80;;;6.50;;
11877;SDS011;5998;42.676;23.268;2023-09-19T11:57:46;7.73;;;5.40;;
11877;SDS011;5998;42.676;23.268;2023-09-19T12:00:16;12.77;;;6.30;;
11877;SDS011;5998;42.676;23.268;2023-09-19T12:02:43;10.33;;;5.40;;
11877;SDS011;5998;42.676;23.268;2023-09-19T12:05:12;8.17;;;4.77;;
11877;SDS011;5998;42.676;23.268;2023-09-19T12:07:43;9.50;;;5.50;;
11877;SDS011;5998;42.676;23.268;2023-09-19T12:10:12;9.53;;;5.80;;
11877;SDS011;5998;42.676;23.268;2023-09-19T12:12:41;10.93;;;5.77;;
11877;SDS011;5998;42.676;23.268;2023-09-19T12:15:12;10.63;;;6.40;;
11877;SDS011;5998;42.676;23.268;2023-09-19T12:17:40;6.53;;;4.80;;
11877;SDS011;5998;42.676;23.268;2023-09-19T12:20:08;9.03;;;5.43;;
11877;SDS011;5998;42.676;23.268;2023-09-19T12:22:40;6.47;;;5.70;;
11877;SDS011;5998;42.676;23.268;2023-09-19T12:25:09;10.50;;;5.70;;
11877;SDS011;5998;42.676;23.268;2023-09-19T12:27:42;6.87;;;5.53;;
11877;SDS011;5998;42.676;23.268;2023-09-19T12:30:12;10.03;;;4.53;;
11877;SDS011;5998;42.676;23.268;2023-09-19T12:32:39;8.20;;;5.17;;
11877;SDS011;5998;42.676;23.268;2023-09-19T12:35:07;10.40;;;5.43;;
11877;SDS011;5998;42.676;23.268;2023-09-19T12:37:36;8.33;;;6.10;;
11877;SDS011;5998;42.676;23.268;2023-09-19T12:40:03;7.37;;;5.10;;
11877;SDS011;5998;42.676;23.268;2023-09-19T12:42:40;8.53;;;5.80;;
11877;SDS011;5998;42.676;23.268;2023-09-19T12:45:08;10.03;;;5.50;;
11877;SDS011;5998;42.676;23.268;2023-09-19T12:47:35;10.53;;;5.73;;
11877;SDS011;5998;42.676;23.268;2023-09-19T12:50:04;8.25;;;5.80;;
11877;SDS011;5998;42.676;23.268;2023-09-19T12:52:34;7.97;;;5.38;;
11877;SDS011;5998;42.676;23.268;2023-09-19T12:55:01;6.68;;;5.22;;
11877;SDS011;5998;42.676;23.268;2023-09-19T12:57:30;6.90;;;5.25;;
11877;SDS011;5998;42.676;23.268;2023-09-19T12:59:57;8.38;;;5.38;;
11877;SDS011;5998;42.676;23.268;2023-09-19T13:02:25;8.88;;;5.47;;
11877;SDS011;5998;42.676;23.268;2023-09-19T13:04:53;5.78;;;4.95;;
11877;SDS011;5998;42.676;23.268;2023-09-19T13:07:40;5.43;;;4.38;;
11877;SDS011;5998;42.676;23.268;2023-09-19T13:10:11;8.57;;;5.37;;
11877;SDS011;5998;42.676;23.268;2023-09-19T13:12:40;9.43;;;5.45;;
11877;SDS011;5998;42.676;23.268;2023-09-19T13:15:08;7.82;;;5.00;;
11877;SDS011;5998;42.676;23.268;2023-09-19T13:17:46;7.10;;;5.13;;
11877;SDS011;5998;42.676;23.268;2023-09-19T13:20:22;7.35;;;5.00;;
11877;SDS011;5998;42.676;23.268;2023-09-19T13:22:54;6.18;;;5.10;;
11877;SDS011;5998;42.676;23.268;2023-09-19T13:25:24;6.03;;;5.13;;
11877;SDS011;5998;42.676;23.268;2023-09-19T13:27:53;7.53;;;5.50;;
11877;SDS011;5998;42.676;23.268;2023-09-19T13:30:21;7.72;;;4.90;;
11877;SDS011;5998;42.676;23.268;2023-09-19T13:32:49;5.18;;;4.68;;
11877;SDS011;5998;42.676;23.268;2023-09-19T13:35:16;6.47;;;5.22;;
11877;SDS011;5998;42.676;23.268;2023-09-19T13:37:42;9.52;;;5.45;;
11877;SDS011;5998;42.676;23.268;2023-09-19T13:40:11;9.23;;;5.57;;
11877;SDS011;5998;42.676;23.268;2023-09-19T13:42:38;5.47;;;4.97;;
11877;SDS011;5998;42.676;23.268;2023-09-19T13:45:05;8.43;;;5.00;;
11877;SDS011;5998;42.676;23.268;2023-09-19T13:47:36;9.07;;;5.25;;
11877;SDS011;5998;42.676;23.268;2023-09-19T13:50:05;5.65;;;4.90;;
11877;SDS011;5998;42.676;23.268;2023-09-19T13:52:31;9.45;;;5.22;;
11877;SDS011;5998;42.676;23.268;2023-09-19T13:54:58;10.07;;;5.87;;
11877;SDS011;5998;42.676;23.268;2023-09-19T13:57:25;7.13;;;4.63;;
11877;SDS011;5998;42.676;23.268;2023-09-19T13:59:52;4.93;;;4.53;;
11877;SDS011;5998;42.676;23.268;2023-09-19T14:02:19;11.07;;;5.00;;
11877;SDS011;5998;42.676;23.268;2023-09-19T14:04:47;7.67;;;5.07;;
11877;SDS011;5998;42.676;23.268;2023-09-19T14:07:15;7.07;;;5.13;;
11877;SDS011;5998;42.676;23.268;2023-09-19T14:09:43;5.10;;;4.45;;
11877;SDS011;5998;42.676;23.268;2023-09-19T14:12:10;5.67;;;4.73;;
11877;SDS011;5998;42.676;23.268;2023-09-19T14:14:37;6.63;;;4.78;;
11877;SDS011;5998;42.676;23.268;2023-09-19T14:17:03;8.40;;;5.27;;
11877;SDS011;5998;42.676;23.268;2023-09-19T14:19:30;6.22;;;5.15;;
11877;SDS011;5998;42.676;23.268;2023-09-19T14:21:57;7.30;;;4.50;;
11877;SDS011;5998;42.676;23.268;2023-09-19T14:24:25;9.27;;;4.97;;
11877;SDS011;5998;42.676;23.268;2023-09-19T14:26:52;5.30;;;4.80;;
11877;SDS011;5998;42.676;23.268;2023-09-19T14:29:19;7.18;;;5.30;;
11877;SDS011;5998;42.676;23.268;2023-09-19T14:31:45;7.32;;;5.00;;
11877;SDS011;5998;42.676;23.268;2023-09-19T14:34:11;5.57;;;5.00;;
11877;SDS011;5998;42.676;23.268;2023-09-19T14:36:39;10.52;;;5.55;;
11877;SDS011;5998;42.676;23.268;2023-09-19T14:39:05;5.65;;;5.03;;
11877;SDS011;5998;42.676;23.268;2023-09-19T14:41:34;7.03;;;4.75;;
11877;SDS011;5998;42.676;23.268;2023-09-19T14:44:02;6.32;;;4.80;;
11877;SDS011;5998;42.676;23.268;2023-09-19T14:46:28;6.37;;;5.13;;
11877;SDS011;5998;42.676;23.268;2023-09-19T14:48:55;7.07;;;5.30;;
11877;SDS011;5998;42.676;23.268;2023-09-19T14:51:24;5.97;;;5.37;;
11877;SDS011;5998;42.676;23.268;2023-09-19T14:53:51;9.20;;;5.47;;
11877;SDS011;5998;42.676;23.268;2023-09-19T14:56:19;7.43;;;5.50;;
11877;SDS011;5998;42.676;23.268;2023-09-19T14:58:48;7.37;;;5.27;;
11877;SDS011;5998;42.676;23.268;2023-09-19T15:01:14;11.27;;;5.80;;
11877;SDS011;5998;42.676;23.268;2023-09-19T15:03:41;9.00;;;6.13;;
11877;SDS011;5998;42.676;23.268;2023-09-19T15:06:08;9.23;;;6.17;;
11877;SDS011;5998;42.676;23.268;2023-09-19T15:08:36;10.37;;;5.77;;